Time;durP1;ratioP1;P1;durP2;ratioP2;P2;SDS_P1;SDS_P2;PMS_P1;PMS_P2;Temp;Humidity;BMP_temperature;BMP_pressure;BME280_temperature;BME280_humidity;BME280_pressure;Samples;Min_cycle;Max_cycle;Signal;HPM_P1;HPM_P2
2022/08/11 00:01:51;;;;;;;;;;;;;;;19.51;41.39;98544.59;4977353;28;19948;-76
2022/08/11 00:04:19;;;;;;;;;;;;;;;19.59;41.51;98551.88;4969817;28;20662;-76
2022/08/11 00:06:49;;;;;;;;;;;;;;;19.48;41.55;98545.28;4975303;28;19928;-76
2022/08/11 00:09:20;;;;;;;;;;;;;;;19.74;41.04;98551.09;4981537;28;19932;-76
2022/08/11 00:12:13;;;;;;;;;;;;;;;19.47;41.68;98546.44;4977841;28;19922;-76
2022/08/11 00:14:42;;;;;;;;;;;;;;;19.46;41.58;98550.34;4977191;28;19937;-76
2022/08/11 00:17:11;;;;;;;;;;;;;;;19.38;41.91;98550.16;4970173;28;19981;-76
2022/08/11 00:19:41;;;;;;;;;;;;;;;19.33;41.67;98547.69;4960027;28;19922;-75
2022/08/11 00:22:33;;;;;;;;;;;;;;;19.37;41.82;98548.56;4974526;28;19922;-75
2022/08/11 00:25:01;;;;;;;;;;;;;;;19.40;41.62;98543.50;4982135;28;19964;-76
2022/08/11 00:27:33;;;;;;;;;;;;;;;19.32;41.63;98548.00;4970373;28;19933;-76
2022/08/11 00:30:01;;;;;;;;;;;;;;;19.33;41.65;98549.59;4979982;28;19922;-76
2022/08/11 00:32:29;;;;;;;;;;;;;;;19.35;41.91;98550.06;4904186;29;20019;-76
2022/08/11 00:34:57;;;;;;;;;;;;;;;19.41;41.50;98551.41;4906791;29;19952;-76
2022/08/11 00:37:49;;;;;;;;;;;;;;;19.37;41.58;98548.56;4903615;29;20306;-76
2022/08/11 00:40:23;;;;;;;;;;;;;;;19.33;41.71;98550.44;4910727;29;19923;-76
2022/08/11 00:42:55;;;;;;;;;;;;;;;19.43;41.87;98548.28;4883157;29;19927;-76
2022/08/11 00:45:24;;;;;;;;;;;;;;;19.31;41.91;98547.22;4886183;29;19928;-76
2022/08/11 00:47:56;;;;;;;;;;;;;;;19.20;42.62;98550.84;4893270;29;19924;-77
2022/08/11 00:50:30;;;;;;;;;;;;;;;19.11;42.59;98548.25;4918132;28;20273;-76
2022/08/11 00:53:08;;;;;;;;;;;;;;;19.06;42.86;98542.97;4975169;28;20051;-76
2022/08/11 00:55:42;;;;;;;;;;;;;;;19.01;42.96;98544.03;4982658;28;19922;-76
2022/08/11 00:58:40;;;;;;;;;;;;;;;18.98;43.26;98536.50;4979054;28;19969;-76
2022/08/11 01:01:09;;;;;;;;;;;;;;;19.06;42.85;98535.53;4984284;28;19944;-76
2022/08/11 01:03:48;;;;;;;;;;;;;;;18.99;43.04;98537.28;4981954;28;19922;-76
2022/08/11 01:06:36;;;;;;;;;;;;;;;19.00;42.91;98541.63;4965346;28;19922;-76
2022/08/11 01:12:26;;;;;;;;;;;;;;;18.94;43.56;98534.78;4967687;28;19922;-76
2022/08/11 01:15:22;;;;;;;;;;;;;;;18.97;43.12;98536.84;4989225;28;19936;-76
2022/08/11 01:17:58;;;;;;;;;;;;;;;18.86;43.31;98535.75;4976570;28;19945;-76
2022/08/11 01:20:46;;;;;;;;;;;;;;;18.80;43.66;98532.44;4976882;28;20016;-76
2022/08/11 01:23:30;;;;;;;;;;;;;;;18.80;43.43;98532.44;4984577;28;19922;-76
2022/08/11 01:26:25;;;;;;;;;;;;;;;18.80;43.57;98532.44;4971748;28;19993;-76
2022/08/11 01:29:21;;;;;;;;;;;;;;;18.67;43.70;98536.38;4902043;29;20010;-76
2022/08/11 01:32:14;;;;;;;;;;;;;;;18.80;43.49;98530.50;4855557;29;20351;-76
2022/08/11 01:35:11;;;;;;;;;;;;;;;18.70;44.10;98539.25;4854527;29;19960;-76
2022/08/11 01:38:07;;;;;;;;;;;;;;;18.70;44.07;98533.75;4826884;29;19932;-76
2022/08/11 01:40:51;;;;;;;;;;;;;;;18.53;44.35;98534.78;4840871;29;19924;-76
2022/08/11 01:46:13;;;;;;;;;;;;;;;18.62;44.31;98537.41;4822139;29;19928;-76
2022/08/11 01:48:41;;;;;;;;;;;;;;;18.57;44.25;98535.69;4878315;29;19963;-76
2022/08/11 01:51:20;;;;;;;;;;;;;;;18.55;44.28;98531.69;4879269;29;19924;-76
2022/08/11 01:56:52;;;;;;;;;;;;;;;18.53;44.46;98539.50;4958569;28;19993;-76
2022/08/11 01:59:21;;;;;;;;;;;;;;;18.45;44.67;98529.44;4971321;28;19940;-76
2022/08/11 02:02:09;;;;;;;;;;;;;;;18.48;44.52;98535.06;4963458;28;19944;-76
2022/08/11 02:04:41;;;;;;;;;;;;;;;18.45;44.87;98535.75;4956650;28;20284;-76
2022/08/11 02:07:14;;;;;;;;;;;;;;;18.49;44.71;98531.16;4956392;28;19929;-76
2022/08/11 02:10:00;;;;;;;;;;;;;;;18.41;44.81;98540.31;4960150;28;19929;-76
2022/08/11 02:12:34;;;;;;;;;;;;;;;18.64;44.29;98534.28;4974085;28;19922;-76
2022/08/11 02:15:27;;;;;;;;;;;;;;;18.55;44.74;98531.69;4966346;28;19974;-76
2022/08/11 02:17:59;;;;;;;;;;;;;;;18.53;44.48;98543.03;4960176;28;19985;-76
2022/08/11 02:23:40;;;;;;;;;;;;;;;18.43;44.92;98534.47;4974047;28;19944;-76
2022/08/11 02:26:34;;;;;;;;;;;;;;;18.58;44.67;98533.75;4973001;28;19953;-76
2022/08/11 02:29:30;;;;;;;;;;;;;;;18.41;44.89;98534.81;4980579;28;20058;-76
2022/08/11 02:34:56;;;;;;;;;;;;;;;18.19;45.45;98536.13;4989742;28;19977;-76
2022/08/11 02:37:28;;;;;;;;;;;;;;;18.14;45.59;98528.13;4992728;28;19933;-76
2022/08/11 02:40:02;;;;;;;;;;;;;;;18.13;45.57;98523.78;4991844;28;20017;-76
2022/08/11 02:42:33;;;;;;;;;;;;;;;18.11;45.62;98523.31;4992935;28;19933;-76
2022/08/11 02:45:08;;;;;;;;;;;;;;;18.11;45.75;98523.31;4991137;28;19926;-76
2022/08/11 02:47:42;;;;;;;;;;;;;;;18.15;45.75;98526.16;4995210;28;19925;-76
2022/08/11 02:50:11;;;;;;;;;;;;;;;18.14;45.81;98522.63;4976269;28;19985;-76
2022/08/11 02:52:41;;;;;;;;;;;;;;;18.17;45.59;98526.63;4976318;28;19972;-76
2022/08/11 02:55:21;;;;;;;;;;;;;;;18.15;45.54;98524.22;4994611;28;19996;-76
2022/08/11 02:58:10;;;;;;;;;;;;;;;18.09;45.86;98525.59;4987941;28;19953;-76
2022/08/11 03:00:43;;;;;;;;;;;;;;;18.05;46.13;98524.69;4932671;29;19950;-77
2022/08/11 03:03:15;;;;;;;;;;;;;;;18.07;45.94;98525.16;4915998;29;19930;-76
2022/08/11 03:05:47;;;;;;;;;;;;;;;18.08;45.93;98523.22;4934622;29;20382;-76
2022/08/11 03:08:41;;;;;;;;;;;;;;;18.19;45.75;98524.34;4931541;29;20508;-76
2022/08/11 03:16:47;;;;;;;;;;;;;;;18.05;46.01;98524.69;4921412;29;20439;-77
2022/08/11 03:19:18;;;;;;;;;;;;;;;18.11;46.22;98531.56;4972455;28;19929;-76
2022/08/11 03:21:47;;;;;;;;;;;;;;;17.97;46.42;98529.16;4993201;28;20383;-76
2022/08/11 03:24:31;;;;;;;;;;;;;;;18.00;46.50;98533.16;4993341;28;19936;-76
2022/08/11 03:27:03;;;;;;;;;;;;;;;17.89;46.45;98535.56;4975723;28;20025;-76
2022/08/11 03:29:33;;;;;;;;;;;;;;;17.87;46.80;98528.84;4964880;28;19923;-75
2022/08/11 03:32:01;;;;;;;;;;;;;;;17.85;46.83;98531.13;4952683;28;19922;-76
2022/08/11 03:34:29;;;;;;;;;;;;;;;17.80;46.64;98530.22;4973758;28;19930;-76
2022/08/11 03:40:04;;;;;;;;;;;;;;;17.72;47.02;98530.28;4954982;28;19922;-76
2022/08/11 03:42:37;;;;;;;;;;;;;;;17.75;47.08;98533.19;4956173;28;20389;-76
2022/08/11 03:45:09;;;;;;;;;;;;;;;17.71;47.16;98529.50;4883328;29;19923;-76
2022/08/11 03:47:41;;;;;;;;;;;;;;;17.75;47.29;98527.69;4875199;29;19980;-76
2022/08/11 03:53:19;;;;;;;;;;;;;;;17.73;47.40;98526.41;4883486;29;20009;-76
2022/08/11 03:55:56;;;;;;;;;;;;;;;17.68;47.22;98523.88;4885484;29;20026;-76
2022/08/11 03:58:45;;;;;;;;;;;;;;;17.52;47.59;98526.50;4879496;29;19931;-76
2022/08/11 04:02:06;;;;;;;;;;;;;;;17.66;47.43;98526.97;4877456;29;19939;-75
2022/08/11 04:04:53;;;;;;;;;;;;;;;17.64;47.43;98523.78;4895678;29;19931;-75
2022/08/11 04:07:42;;;;;;;;;;;;;;;17.60;47.61;98522.84;4970888;28;19944;-75
2022/08/11 04:10:30;;;;;;;;;;;;;;;17.63;47.77;98524.09;4971224;28;19929;-76
2022/08/11 04:13:09;;;;;;;;;;;;;;;17.62;47.75;98528.00;4961202;28;20306;-74
2022/08/11 04:16:02;;;;;;;;;;;;;;;17.77;47.30;98519.91;4975730;28;19926;-74
2022/08/11 04:19:00;;;;;;;;;;;;;;;17.86;47.07;98522.53;4952622;28;19926;-74
2022/08/11 04:21:47;;;;;;;;;;;;;;;17.72;47.74;98520.13;4976082;28;19922;-76
2022/08/11 04:24:21;;;;;;;;;;;;;;;17.73;47.48;98524.47;4976045;28;19922;-75
2022/08/11 04:27:24;;;;;;;;;;;;;;;17.86;47.37;98524.50;4960506;28;20013;-75
2022/08/11 04:33:17;;;;;;;;;;;;;;;17.81;47.41;98522.78;4974271;28;19930;-76
2022/08/11 04:35:58;;;;;;;;;;;;;;;17.86;47.50;98529.97;4966925;28;20337;-75
2022/08/11 04:39:18;;;;;;;;;;;;;;;17.95;46.83;98530.66;4972496;28;19921;-76
2022/08/11 04:45:27;;;;;;;;;;;;;;;17.64;47.94;98528.47;4974905;28;19928;-76
2022/08/11 05:02:53;;;;;;;;;;;;;;;17.77;47.87;98552.06;4976173;28;19928;-76
2022/08/11 05:05:31;;;;;;;;;;;;;;;17.87;47.58;98551.63;4914636;28;19926;-75
2022/08/11 05:08:07;;;;;;;;;;;;;;;17.76;47.89;98553.22;4976495;28;19922;-76
2022/08/11 05:10:45;;;;;;;;;;;;;;;17.72;48.42;98560.50;4956288;28;20061;-75
2022/08/11 05:35:50;;;;;;;;;;;;;;;17.89;48.57;98565.00;4993860;28;19922;-75
2022/08/11 05:57:57;;;;;;;;;;;;;;;18.45;47.37;98587.22;4921356;29;19931;-75
2022/08/11 06:00:26;;;;;;;;;;;;;;;18.62;46.81;98575.94;4926445;29;19922;-76
2022/08/11 06:02:54;;;;;;;;;;;;;;;18.56;46.69;98583.63;4922311;29;19927;-76
2022/08/11 06:05:25;;;;;;;;;;;;;;;18.61;46.61;98585.34;4930691;29;19934;-75
2022/08/11 06:07:53;;;;;;;;;;;;;;;18.61;46.68;98585.34;4916622;29;20437;-76
2022/08/11 06:10:26;;;;;;;;;;;;;;;18.69;46.46;98587.16;4930008;29;20005;-76
2022/08/11 06:12:55;;;;;;;;;;;;;;;18.91;46.39;98577.59;4929892;29;19962;-76
2022/08/11 06:15:23;;;;;;;;;;;;;;;18.94;46.23;98576.09;4938615;28;19976;-76
2022/08/11 06:17:52;;;;;;;;;;;;;;;19.14;45.58;98569.59;4976550;28;20281;-76
2022/08/11 06:20:20;;;;;;;;;;;;;;;19.12;46.23;98571.88;4993092;28;19921;-76
2022/08/11 06:22:51;;;;;;;;;;;;;;;19.33;45.20;98571.66;4993461;28;19956;-75
2022/08/11 06:25:44;;;;;;;;;;;;;;;19.35;44.95;98574.88;4976358;28;20368;-74
2022/08/11 06:28:12;;;;;;;;;;;;;;;19.46;45.06;98573.19;4988779;28;19928;-75
2022/08/11 06:30:45;;;;;;;;;;;;;;;19.56;44.61;98577.38;4986295;28;19921;-75
2022/08/11 06:33:15;;;;;;;;;;;;;;;19.45;44.92;98574.34;4971644;28;20567;-74
2022/08/11 06:35:47;;;;;;;;;;;;;;;19.61;44.57;98571.66;4991752;28;19929;-75
2022/08/11 06:38:20;;;;;;;;;;;;;;;19.62;44.78;98578.75;4989880;28;20288;-75
2022/08/11 06:41:29;;;;;;;;;;;;;;;19.57;44.86;98577.03;4975973;28;19926;-75
2022/08/11 06:43:44;;;;;;;;;;;;;;;19.73;44.01;98568.00;4966215;28;19934;-75
2022/08/11 06:46:26;;;;;;;;;;;;;;;19.84;44.63;98563.53;4980703;28;19921;-75
2022/08/11 06:48:56;;;;;;;;;;;;;;;19.92;44.12;98564.50;4981908;28;20025;-75
2022/08/11 06:51:23;;;;;;;;;;;;;;;20.03;43.58;98565.59;4993423;28;20372;-74
2022/08/11 07:05:42;;;;;;;;;;;;;;;20.50;42.62;98579.28;4991284;28;19921;-73
2022/08/11 07:17:21;;;;;;;;;;;;;;;20.74;41.77;98567.19;4993804;28;19969;-74
2022/08/11 07:31:12;;;;;;;;;;;;;;;21.26;40.91;98554.81;4967733;28;19922;-74
2022/08/11 07:33:42;;;;;;;;;;;;;;;21.28;40.95;98555.25;4974530;28;19922;-74
2022/08/11 07:36:29;;;;;;;;;;;;;;;21.36;41.07;98553.41;4995883;28;19925;-74
2022/08/11 07:39:01;;;;;;;;;;;;;;;21.51;40.93;98560.00;4986567;28;20340;-74
2022/08/11 07:41:34;;;;;;;3.08;1.60;;;;;;;21.59;40.79;98557.03;4989970;28;19968;-73
2022/08/11 07:44:08;;;;;;;;;;;;;;;21.67;40.42;98557.94;4992611;28;20517;-74
2022/08/11 07:52:32;;;;;;;;;;;;;;;22.14;39.02;98552.00;4998095;28;20906;-74
2022/08/11 07:55:03;;;;;;;;;;;;;;;22.17;38.75;98558.78;4998247;28;20335;-74
2022/08/11 08:17:56;;;;;;;;;;;;;;;23.32;36.49;98549.94;4992033;28;20037;-75
2022/08/11 08:20:37;;;;;;;;;;;;;;;23.23;36.61;98541.97;4994961;28;20377;-75
2022/08/11 08:23:05;;;;;;;;;;;;;;;23.19;36.16;98535.56;4996127;28;20288;-75
2022/08/11 08:25:34;;;;;;;;;;;;;;;23.38;35.92;98540.91;4972629;28;19961;-74
2022/08/11 08:28:29;;;;;;;;;;;;;;;23.53;34.55;98541.84;5001200;28;19921;-75
2022/08/11 08:30:58;;;;;;;;;;;;;;;23.55;34.35;98541.47;4978910;28;19929;-74
2022/08/11 08:33:26;;;;;;;;;;;;;;;23.52;35.01;98538.28;4977092;28;19926;-74
2022/08/11 08:36:10;;;;;;;;;;;;;;;23.60;34.84;98541.13;4978712;28;20361;-74
2022/08/11 08:38:41;;;;;;;;;;;;;;;23.75;33.81;98535.31;4972897;28;19949;-74
2022/08/11 08:41:12;;;;;;;;;;;;;;;23.62;33.32;98541.53;4981847;28;19988;-74
2022/08/11 08:43:45;;;;;;;;;;;;;;;23.74;32.78;98527.41;4980039;28;19921;-73
2022/08/11 08:46:15;;;;;;;;;;;;;;;23.66;34.48;98528.53;4962291;28;20397;-74
2022/08/11 08:48:43;;;;;;;;;;;;;;;23.81;33.10;98526.66;4979768;28;19961;-74
2022/08/11 08:54:19;;;;;;;3.95;2.08;;;;;;;23.99;32.00;98527.59;4979424;28;20445;-74
2022/08/11 08:56:49;;;;;;;4.97;2.00;;;;;;;23.96;31.71;98539.47;4979712;28;22224;-74
2022/08/11 08:59:22;;;;;;;3.78;1.60;;;;;;;24.11;31.76;98534.81;4972216;28;20554;-74
2022/08/11 09:01:52;;;;;;;3.95;1.90;;;;;;;24.18;32.01;98534.84;4963086;28;20419;-75
2022/08/11 09:04:20;;;;;;;;;;;;;;;24.14;31.70;98531.28;4961018;28;20730;-76
2022/08/11 09:06:51;;;;;;;;;;;;;;;24.27;32.29;98527.78;4974469;28;19944;-75
2022/08/11 09:09:19;;;;;;;;;;;;;;;24.20;31.08;98526.94;4986932;28;19922;-75
2022/08/11 09:11:52;;;;;;;;;;;;;;;24.36;31.58;98526.69;4963004;28;19972;-75
2022/08/11 09:14:21;;;;;;;;;;;;;;;24.33;31.41;98519.88;4910818;29;19923;-72
2022/08/11 09:16:49;;;;;;;;;;;;;;;24.58;31.37;98524.81;4928146;29;19924;-73
2022/08/11 09:19:18;;;;;;;;;;;;;;;24.58;30.95;98525.59;4917348;29;19922;-73
2022/08/11 09:26:58;;;;;;;;;;;;;;;24.59;31.83;98527.19;4932762;29;19926;-74
2022/08/11 09:27:23;;;;;;;;;;;;;;;24.47;32.21;98531.09;4910338;29;19930;-74
2022/08/11 09:29:53;;;;;;;;;;;;;;;24.40;32.29;98530.28;4917663;29;19923;-74
2022/08/11 09:32:21;;;;;;;;;;;;;;;24.53;31.84;98529.53;4951225;28;20036;-74
2022/08/11 09:34:50;;;;;;;;;;;;;;;24.60;31.46;98530.75;4965376;28;19926;-76
2022/08/11 09:40:32;;;;;;;;;;;;;;;24.53;31.38;98535.09;4970276;28;19926;-74
2022/08/11 09:45:50;;;;;;;;;;;;;;;24.64;32.20;98520.47;4977060;28;19949;-72
2022/08/11 09:48:20;;;;;;;6.50;1.95;;;;;;;24.86;30.83;98519.34;4971846;28;20887;-72
2022/08/11 09:50:48;;;;;;;;;;;;;;;25.11;29.03;98524.25;4974449;28;20432;-72
2022/08/11 09:53:19;;;;;;;;;;;;;;;25.13;29.00;98511.53;4955361;28;19973;-73
2022/08/11 09:58:12;;;;;;;;;;;;;;;25.23;28.64;98504.41;4953580;28;20383;-72
2022/08/11 09:59:16;;;;;;;5.10;1.77;;;;;;;25.12;28.16;98509.94;4973642;28;20436;-72
2022/08/11 10:01:49;;;;;;;5.60;1.70;;;;;;;25.29;28.46;98511.94;4956110;28;20436;-73
2022/08/11 10:04:19;;;;;;;4.30;1.58;;;;;;;25.27;28.00;98502.44;4969659;28;20446;-72
2022/08/11 10:07:02;;;;;;;3.47;1.33;;;;;;;25.41;27.75;98498.84;4972640;28;20424;-72
2022/08/11 10:09:38;;;;;;;3.92;1.63;;;;;;;25.27;28.71;98492.09;4970558;28;20961;-73
2022/08/11 10:12:09;;;;;;;7.45;1.88;;;;;;;25.33;28.55;98492.50;4973546;28;20507;-73
2022/08/11 10:20:31;;;;;;;;;;;;;;;25.27;28.83;98478.19;4888777;29;20360;-73
2022/08/11 10:28:30;;;;;;;;;;;;;;;25.44;28.35;98495.28;4881157;29;20018;-72
2022/08/11 10:37:01;;;;;;;;;;;;;;;25.61;27.97;98480.59;4926649;29;19982;-72
2022/08/11 10:39:32;;;;;;;;;;;;;;;25.46;28.11;98473.44;4944385;28;20016;-73
2022/08/11 10:47:56;;;;;;;;;;;;;;;25.56;29.00;98467.88;4974320;28;20013;-72
2022/08/11 10:58:50;;;;;;;;;;;;;;;25.72;27.33;98458.31;4965870;28;20393;-73
2022/08/11 11:01:45;;;;;;;;;;;;;;;25.79;27.75;98453.59;4969794;28;19929;-73
2022/08/11 11:04:13;;;;;;;;;;;;;;;25.92;26.30;98455.94;4963578;28;19921;-72
2022/08/11 11:06:50;;;;;;;;;;;;;;;26.08;27.21;98453.53;4955824;28;19922;-72
2022/08/11 11:09:19;;;;;;;;;;;;;;;26.12;25.86;98446.75;4956832;28;19969;-70
2022/08/11 11:18:00;;;;;;;;;;;;;;;26.14;26.54;98435.19;4972487;28;19922;-71
2022/08/11 11:20:30;;;;;;;;;;;;;;;26.08;26.30;98442.38;4950760;28;19922;-71
2022/08/11 11:23:06;;;;;;;;;;;;;;;26.03;26.13;98435.22;4955713;28;19949;-73
2022/08/11 11:26:09;;;;;;;;;;;;;;;26.26;25.59;98436.75;4973146;28;19922;-73
2022/08/11 11:28:50;;;;;;;;;;;;;;;26.17;25.64;98450.31;4935647;28;19988;-72
2022/08/11 11:31:22;;;;;;;;;;;;;;;26.43;25.85;98430.38;4982633;28;20017;-72
2022/08/11 11:33:55;;;;;;;;;;;;;;;26.35;24.92;98434.34;4985166;28;20384;-71
2022/08/11 11:36:34;;;;;;;;;;;;;;;26.43;24.12;98433.16;4972178;28;19945;-74
2022/08/11 11:39:07;;;;;;;;;;;;;;;26.37;25.09;98416.03;4978840;28;19969;-71
2022/08/11 11:41:35;;;;;;;;;;;;;;;26.37;25.27;98420.81;4991912;28;20361;-71
2022/08/11 11:44:03;;;;;;;;;;;;;;;26.34;25.29;98413.25;4993194;28;20016;-71
2022/08/11 11:46:32;;;;;;;;;;;;;;;26.41;26.18;98418.78;4979135;28;20357;-71
2022/08/11 11:49:08;;;;;;;;;;;;;;;26.51;26.12;98423.56;4977801;28;20005;-71
2022/08/11 11:51:42;;;;;;;;;;;;;;;26.52;26.33;98414.00;4997271;28;19921;-72
2022/08/11 11:54:11;;;;;;;;;;;;;;;26.45;26.01;98411.25;4996575;28;20428;-72
2022/08/11 11:56:39;;;;;;;;;;;;;;;26.50;26.17;98405.25;4998317;28;20012;-72
2022/08/11 12:01:56;;;;;;;;;;;;;;;26.48;26.42;98398.50;5003972;28;19923;-72
2022/08/11 12:04:24;;;;;;;;;;;;;;;26.39;25.31;98404.47;5005965;28;19949;-71
2022/08/11 12:08:08;;;;;;;;;;;;;;;26.29;25.60;98408.09;4976540;28;19981;-71
2022/08/11 12:09:47;;;;;;;;;;;;;;;26.27;25.09;98399.38;4993030;28;19990;-72
2022/08/11 12:15:25;;;;;;;;;;;;;;;26.41;26.04;98395.72;4996282;28;19969;-72
2022/08/11 12:18:13;;;;;;;;;;;;;;;26.46;26.16;98398.09;4978186;28;19922;-72
2022/08/11 12:20:40;;;;;;;;;;;;;;;26.55;25.73;98387.31;4979450;28;19928;-72
2022/08/11 12:29:42;;;;;;;;;;;;;;;26.64;24.04;98373.75;4925850;28;19930;-72
2022/08/11 12:32:11;;;;;;;;;;;;;;;26.64;24.39;98370.97;4960945;28;19945;-74
2022/08/11 12:34:39;;;;;;;;;;;;;;;26.70;24.47;98382.47;4962304;28;19925;-74
2022/08/11 12:37:09;;;;;;;;;;;;;;;26.61;25.58;98377.34;4960293;28;19969;-74
2022/08/11 12:45:30;;;;;;;;;;;;;;;26.72;24.80;98372.47;4961679;28;19964;-74
2022/08/11 12:54:33;;;;;;;;;;;;;;;26.73;24.29;98348.19;4971254;28;20356;-71
2022/08/11 13:05:38;;;;;;;;;;;;;;;26.83;23.82;98348.13;4976282;28;19925;-71
2022/08/11 13:08:12;;;;;;;;;;;;;;;26.83;24.69;98350.13;4960017;28;19929;-72
2022/08/11 13:13:28;;;;;;;;;;;;;;;26.95;23.26;98326.53;4972478;28;19981;-71
2022/08/11 13:16:19;;;;;;;;;;;;;;;26.96;23.13;98328.91;4979488;28;20016;-71
2022/08/11 13:18:47;;;;;;;;;;;;;;;26.97;23.67;98330.50;4954735;28;19991;-71
2022/08/11 13:21:42;;;;;;;;;;;;;;;27.05;24.17;98329.22;4967752;28;20299;-72
2022/08/11 13:24:17;;;;;;;;;;;;;;;27.13;24.29;98333.56;4955307;28;19929;-72
2022/08/11 13:26:45;;;;;;;;;;;;;;;27.21;23.62;98328.72;4966372;28;20354;-72
2022/08/11 13:29:40;;;;;;;;;;;;;;;27.10;23.96;98328.81;4974230;28;20060;-71
2022/08/11 13:32:10;;;;;;;;;;;;;;;27.11;23.62;98329.59;4993886;28;20376;-72
2022/08/11 13:34:41;;;;;;;;;;;;;;;27.03;23.63;98320.47;4914968;29;19930;-72
2022/08/11 13:37:09;;;;;;;;;;;;;;;27.04;23.35;98322.06;4914413;29;20421;-72
2022/08/11 13:39:42;;;;;;;;;;;;;;;27.12;23.23;98314.47;4919319;29;19929;-72
2022/08/11 13:42:10;;;;;;;;;;;;;;;27.00;22.96;98317.72;4908917;29;19930;-72
2022/08/11 13:44:40;;;;;;;;;;;;;;;27.03;23.52;98314.91;4909485;29;20346;-72
2022/08/11 13:47:12;;;;;;;;;;;;;;;26.98;23.00;98308.97;4866326;29;19931;-72
2022/08/11 13:49:41;;;;;;;;;;;;;;;27.17;23.61;98307.66;4856439;29;19931;-72
2022/08/11 13:52:12;;;;;;;;;;;;;;;27.31;23.87;98310.31;4886277;29;19934;-72
2022/08/11 13:54:42;;;;;;;;;;;;;;;27.33;24.08;98299.53;4913029;29;20362;-72
2022/08/11 13:57:14;;;;;;;;;;;;;;;27.35;24.55;98294.31;4915071;29;19958;-72
2022/08/11 14:00:09;;;;;;;;;;;;;;;27.41;24.85;98292.66;4912517;29;20437;-72
2022/08/11 14:02:42;;;;;;;;;;;;;;;27.42;24.16;98294.25;4909586;29;20011;-72
2022/08/11 14:05:12;;;;;;;;;;;;;;;27.49;24.36;98296.97;4950888;28;19928;-72
2022/08/11 14:07:42;;;;;;;;;;;;;;;27.49;23.66;98285.81;4974941;28;19958;-72
2022/08/11 14:10:10;;;;;;;;;;;;;;;27.36;23.20;98285.53;4978739;28;19922;-72
2022/08/11 14:15:28;;;;;;;;;;;;;;;27.37;23.25;98281.53;4997174;28;19929;-73
2022/08/11 14:18:00;;;;;;;;;;;;;;;27.35;22.84;98283.16;4992390;28;19922;-72
2022/08/11 14:22:05;;;;;;;;;;;;;;;27.37;23.07;98280.75;4976057;28;20396;-72
2022/08/11 14:23:17;;;;;;;;;;;;;;;27.43;23.30;98276.28;4990006;28;20389;-74
2022/08/11 14:28:30;;;;;;;;;;;;;;;27.52;23.89;98270.22;4996216;28;20319;-74
2022/08/11 14:31:05;;;;;;;;;;;;;;;27.59;22.82;98279.31;4972810;28;19929;-74
2022/08/11 14:33:34;;;;;;;;;;;;;;;27.57;22.42;98273.34;5000421;28;19922;-74
2022/08/11 14:36:49;;;;;;;;;;;;;;;27.52;23.32;98276.59;4999282;28;19933;-74
2022/08/11 14:39:19;;;;;;;;;;;;;;;27.60;23.62;98272.53;4994812;28;19984;-74
2022/08/11 14:47:25;;;;;;;;;;;;;;;27.37;21.75;98264.78;4989738;28;19938;-75
2022/08/11 14:49:55;;;;;;;;;;;;;;;27.43;22.61;98256.75;4975264;28;19921;-74
2022/08/11 14:52:36;;;;;;;;;;;;;;;27.43;22.64;98256.75;4993795;28;19929;-74
2022/08/11 14:57:53;;;;;;;;;;;;;;;27.37;23.85;98252.84;4973710;28;20020;-74
2022/08/11 15:00:33;;;;;;;;;;;;;;;27.38;24.03;98254.44;4975652;28;19929;-74
2022/08/11 15:03:10;;;;;;;;;;;;;;;27.46;23.00;98250.34;4997222;28;19921;-74
2022/08/11 15:05:42;;;;;;;;;;;;;;;27.44;24.08;98252.00;4979142;28;19925;-74
2022/08/11 15:08:53;;;;;;;;;;;;;;;27.52;23.28;98248.69;4986316;28;20265;-74
2022/08/11 15:13:56;;;;;;;;;;;;;;;27.73;23.14;98249.69;4973202;28;20001;-74
2022/08/11 15:19:09;;;;;;;;;;;;;;;27.75;23.40;98238.88;4972873;28;19922;-74
2022/08/11 15:24:24;;;;;;;;;;;;;;;27.66;24.21;98240.16;4978932;28;19977;-74
2022/08/11 15:38:35;;;;;;;;;;;;;;;28.06;22.63;98229.28;5002252;28;19945;-74
2022/08/11 15:46:39;;;;;;;;;;;;;;;28.10;23.52;98221.66;4973964;28;19929;-74
2022/08/11 15:49:08;;;;;;;;;;;;;;;28.18;23.17;98234.31;4990810;28;20012;-74
2022/08/11 15:51:36;;;;;;;;;;;;;;;28.15;23.27;98223.97;4972466;28;19953;-74
2022/08/11 15:54:06;;;;;;;;;;;;;;;28.16;23.38;98225.53;4992752;28;19971;-74
2022/08/11 15:56:36;;;;;;;;;;;;;;;28.14;23.39;98222.38;4992318;28;20302;-74
2022/08/11 16:05:02;;;;;;;;;;;;;;;27.98;23.34;98218.66;4964018;28;19926;-74
2022/08/11 16:07:32;;;;;;;;;;;;;;;27.89;23.35;98219.16;4976037;28;20387;-74
2022/08/11 16:10:06;;;;;;;;;;;;;;;27.78;23.65;98210.13;4972502;28;20008;-74
2022/08/11 16:12:37;;;;;;;;;;;;;;;27.73;22.92;98210.59;4991353;28;19921;-74
2022/08/11 16:17:57;;;;;;;;;;;;;;;27.60;23.85;98193.59;4972253;28;20337;-74
2022/08/11 16:20:26;;;;;;;;;;;;;;;27.64;23.65;98194.31;4992977;28;19936;-74
2022/08/11 16:22:55;;;;;;;;;;;;;;;27.62;23.88;98196.75;4993690;28;19922;-74
2022/08/11 16:25:30;;;;;;;;;;;;;;;27.58;23.93;98188.41;4971076;28;20391;-74
2022/08/11 16:28:19;;;;;;;;;;;;;;;27.57;24.28;98184.03;4973646;28;19922;-74
2022/08/11 16:30:47;;;;;;;;;;;;;;;27.55;25.49;98180.88;4990502;28;20021;-74
2022/08/11 16:33:15;;;;;;;;;;;;;;;27.53;25.63;98180.50;4975224;28;19922;-75
2022/08/11 16:38:50;;;;;;;;;;;;;;;27.48;25.07;98180.16;4978186;28;19956;-75
2022/08/11 16:46:58;;;;;;;;;;;;;;;27.47;24.32;98173.00;4996108;28;19928;-74
2022/08/11 16:46:59;;;;;;;;;;;;;;;27.47;25.49;98173.00;4977170;28;20387;-74
2022/08/11 16:49:29;;;;;;;;;;;;;;;27.40;25.25;98168.31;4992780;28;19967;-73
2022/08/11 16:52:02;;;;;;;;;;;;;;;27.38;24.66;98165.16;4994581;28;20537;-76
2022/08/11 16:54:31;;;;;;;;;;;;;;;27.36;24.67;98170.34;4995947;28;20037;-75
2022/08/11 16:59:12;;;;;;;;;;;;;;;27.30;24.48;98170.03;4994359;28;19925;-75
2022/08/11 16:59:50;;;;;;;;;;;;;;;27.39;24.09;98172.31;4995164;28;19929;-75
2022/08/11 17:13:42;;;;;;;;;;;;;;;27.46;25.27;98177.03;4895722;29;20370;-75
2022/08/11 17:16:36;;;;;;;;;;;;;;;27.33;25.37;98182.38;4911966;29;19923;-75
2022/08/11 17:19:05;;;;;;;;;;;;;;;27.25;25.28;98172.50;4862052;29;19927;-75
2022/08/11 17:21:34;;;;;;;;;;;;;;;27.19;29.30;98177.72;4845548;29;19958;-75
2022/08/11 17:24:02;;;;;;;;;;;;;;;27.09;26.34;98171.06;4858073;29;19934;-73
2022/08/11 17:26:55;;;;;;;;;;;;;;;27.11;26.06;98168.66;4884127;29;19923;-75
2022/08/11 17:29:51;;;;;;;;;;;;;;;27.11;25.88;98176.22;4904918;29;20362;-76
2022/08/11 17:35:29;;;;;;;;;;;;;;;26.83;26.76;98164.13;4916032;29;19930;-76
2022/08/11 17:38:00;;;;;;;;;;;;;;;26.95;27.94;98173.16;4973626;28;19934;-75
2022/08/11 17:40:28;;;;;;;;;;;;;;;26.83;26.77;98168.91;4990296;28;20384;-74
2022/08/11 17:48:29;;;;;;;;;;;;;;;26.68;28.08;98167.47;4985683;28;19955;-74
2022/08/11 17:50:59;;;;;;;;;;;;;;;26.61;27.29;98173.91;4982277;28;21216;-74
2022/08/11 18:05:04;;;;;;;;;;;;;;;26.20;28.29;98176.59;4975951;28;19922;-74
